createdAt,value
2022-08-24T00:03:00.585Z,977.83
2022-08-24T00:08:31.830Z,977.71
2022-08-24T00:14:03.506Z,977.85
2022-08-24T00:19:35.254Z,977.7
2022-08-24T00:25:06.906Z,977.7
2022-08-24T00:30:38.690Z,977.67
2022-08-24T00:36:10.352Z,977.62
2022-08-24T00:41:42.162Z,977.67
2022-08-24T00:47:13.858Z,977.59
2022-08-24T00:52:45.582Z,977.7
2022-08-24T00:58:20.885Z,977.78
2022-08-24T01:03:57.666Z,977.8
2022-08-24T01:09:25.135Z,978.0
2022-08-24T01:14:56.866Z,978.08
2022-08-24T01:20:28.474Z,977.89
2022-08-24T01:26:00.262Z,978.24
2022-08-24T01:31:32.216Z,978.08
2022-08-24T01:37:03.837Z,978.25
2022-08-24T01:42:35.561Z,978.28
2022-08-24T01:48:07.230Z,978.36
2022-08-24T01:53:39.102Z,978.22
2022-08-24T01:59:10.561Z,978.25
2022-08-24T02:04:48.600Z,978.68
2022-08-24T02:10:20.482Z,978.7
2022-08-24T02:15:52.283Z,978.51
2022-08-24T02:21:23.982Z,978.59
2022-08-24T02:26:55.578Z,978.58
2022-08-24T02:32:27.244Z,978.5
2022-08-24T02:37:59.053Z,978.3
2022-08-24T02:43:35.102Z,978.64
2022-08-24T02:49:12.705Z,978.77
2022-08-24T02:54:34.461Z,979.11
2022-08-24T03:00:11.102Z,979.13
2022-08-24T03:05:42.139Z,979.19
2022-08-24T03:11:13.790Z,978.84
2022-08-24T03:16:45.484Z,978.57
2022-08-24T03:22:17.254Z,979.16
2022-08-24T03:27:50.546Z,979.3
2022-08-24T03:33:20.777Z,979.36
2022-08-24T03:38:52.447Z,979.26
2022-08-24T03:44:24.353Z,979.35
2022-08-24T03:49:56.355Z,979.28
2022-08-24T03:55:27.685Z,979.7
2022-08-24T04:00:59.420Z,979.77
2022-08-24T04:06:35.431Z,979.7
2022-08-24T04:12:07.197Z,979.64
2022-08-24T04:17:38.862Z,979.73
2022-08-24T04:23:13.720Z,979.58
2022-08-24T04:28:42.251Z,979.53
2022-08-24T04:34:13.975Z,979.48
2022-08-24T04:39:48.283Z,979.48
2022-08-24T04:45:17.603Z,979.69
2022-08-24T04:50:49.300Z,979.71
2022-08-24T04:56:20.934Z,979.67
2022-08-24T05:01:52.883Z,980.16
2022-08-24T05:07:30.717Z,980.51
2022-08-24T05:13:02.864Z,980.55
2022-08-24T05:18:34.169Z,980.9
2022-08-24T05:24:05.921Z,981.17
2022-08-24T05:29:38.752Z,981.42
2022-08-24T05:35:09.485Z,981.59
2022-08-24T05:40:41.201Z,981.67
2022-08-24T05:46:12.950Z,982.04
2022-08-24T05:51:44.551Z,982.16
2022-08-24T05:57:16.303Z,982.36
2022-08-24T06:02:48.277Z,982.2
2022-08-24T06:08:24.042Z,982.55
2022-08-24T06:13:59.937Z,982.1
2022-08-24T06:19:27.695Z,982.84
2022-08-24T06:24:59.883Z,983.26
2022-08-24T06:30:31.550Z,983.41
2022-08-24T06:36:04.537Z,983.64
2022-08-24T06:41:34.438Z,983.54
2022-08-24T06:47:06.381Z,983.86
2022-08-24T06:52:37.877Z,983.86
2022-08-24T06:58:09.594Z,984.5
2022-08-24T07:03:41.346Z,984.44
2022-08-24T07:09:17.514Z,984.3
2022-08-24T07:14:49.224Z,983.46
2022-08-24T07:20:20.919Z,983.42
2022-08-24T07:25:57.479Z,984.67
2022-08-24T07:31:24.545Z,985.01
2022-08-24T07:36:56.083Z,984.77
2022-08-24T07:42:32.777Z,984.73
2022-08-24T07:53:54.475Z,984.42
2022-08-24T07:59:02.927Z,984.46
2022-08-24T08:04:34.659Z,983.63
2022-08-24T08:10:14.759Z,983.73
2022-08-24T08:15:46.573Z,984.11
2022-08-24T08:21:18.458Z,984.06
2022-08-24T08:26:50.081Z,983.51
2022-08-24T08:32:21.782Z,983.33
2022-08-24T08:37:53.515Z,983.54
2022-08-24T08:43:25.155Z,983.02
2022-08-24T08:48:56.830Z,982.98
2022-08-24T08:54:28.625Z,982.9
2022-08-24T09:00:00.398Z,982.75
2022-08-24T09:05:32.082Z,982.65
2022-08-24T09:11:10.441Z,982.25
2022-08-24T09:16:42.010Z,982.46
2022-08-24T09:22:13.639Z,982.84
2022-08-24T09:27:52.151Z,982.29
2022-08-24T09:33:17.093Z,982.53
2022-08-24T09:38:48.724Z,982.58
2022-08-24T09:44:20.473Z,981.7
2022-08-24T09:49:52.669Z,982.23
2022-08-24T09:55:24.090Z,982.75
2022-08-24T10:01:00.513Z,982.25
2022-08-24T10:06:27.345Z,981.9
2022-08-24T10:12:03.496Z,981.72
2022-08-24T10:17:35.194Z,982.01
2022-08-24T10:23:06.914Z,981.75
2022-08-24T10:28:38.760Z,981.84
2022-08-24T10:34:10.543Z,981.6
2022-08-24T10:39:42.167Z,981.83
2022-08-24T10:45:13.830Z,981.5
2022-08-24T10:50:45.693Z,981.67
2022-08-24T10:56:18.786Z,981.91
2022-08-24T11:01:49.047Z,980.61
2022-08-24T11:07:20.631Z,980.65
2022-08-24T11:12:57.120Z,980.37
2022-08-24T11:18:28.545Z,981.29
2022-08-24T11:24:00.210Z,980.79
2022-08-24T11:29:32.377Z,981.22
2022-08-24T11:35:03.785Z,980.05
2022-08-24T11:40:35.490Z,980.76
2022-08-24T11:46:07.781Z,980.72
2022-08-24T11:51:40.213Z,980.28
2022-08-24T11:57:12.908Z,980.14
2022-08-24T12:02:44.053Z,980.16
2022-08-24T12:08:15.443Z,980.29
2022-08-24T12:13:51.825Z,979.86
2022-08-24T12:19:23.386Z,979.81
2022-08-24T12:24:55.097Z,979.42
2022-08-24T12:30:26.867Z,980.16
2022-08-24T12:35:58.542Z,979.35
2022-08-24T12:41:30.221Z,979.4
2022-08-24T12:47:02.167Z,980.18
2022-08-24T12:52:33.745Z,979.3
2022-08-24T12:58:36.024Z,979.66
2022-08-24T13:03:37.110Z,979.39
2022-08-24T13:09:11.081Z,980.2
2022-08-24T13:14:44.918Z,979.66
2022-08-24T13:20:16.673Z,979.86
2022-08-24T13:25:48.905Z,979.71
2022-08-24T13:31:20.283Z,979.1
2022-08-24T13:36:52.156Z,979.1
2022-08-24T13:42:23.569Z,979.62
2022-08-24T13:47:55.293Z,978.72
2022-08-24T13:53:27.517Z,978.87
2022-08-24T13:59:00.575Z,979.09
2022-08-24T14:04:30.637Z,979.4
2022-08-24T14:10:03.201Z,979.19
2022-08-24T14:15:38.721Z,978.72
2022-08-24T14:21:10.317Z,978.96
2022-08-24T14:26:41.772Z,978.53
2022-08-24T14:32:13.604Z,978.64
2022-08-24T14:37:45.214Z,978.28
2022-08-24T14:43:21.324Z,978.22
2022-08-24T14:48:48.653Z,978.46
2022-08-24T14:54:20.440Z,978.12
2022-08-24T14:59:52.119Z,977.04
2022-08-24T15:05:24.036Z,978.42
2022-08-24T15:10:55.504Z,977.72
2022-08-24T15:16:31.897Z,977.95
2022-08-24T15:22:03.433Z,978.31
2022-08-24T15:27:35.214Z,978.34
2022-08-24T15:33:06.929Z,978.41
2022-08-24T15:38:38.546Z,978.12
2022-08-24T15:44:10.374Z,978.43
2022-08-24T15:49:41.980Z,978.27
2022-08-24T15:55:13.705Z,978.62
2022-08-24T16:00:45.565Z,977.77
2022-08-24T16:06:17.181Z,978.63
2022-08-24T16:11:48.860Z,978.11
2022-08-24T16:17:24.989Z,977.87
2022-08-24T16:23:01.312Z,977.91
2022-08-24T16:28:28.437Z,978.33
2022-08-24T16:34:00.213Z,977.83
2022-08-24T16:39:31.989Z,978.25
2022-08-24T16:45:03.684Z,978.42
2022-08-24T16:50:35.578Z,978.31
2022-08-24T16:56:07.033Z,977.67
2022-08-24T17:01:39.061Z,978.17
2022-08-24T17:07:10.549Z,978.34
2022-08-24T17:12:42.241Z,978.18
2022-08-24T17:18:18.461Z,978.11
2022-08-24T17:23:50.065Z,978.11
2022-08-24T17:29:22.017Z,978.05
2022-08-24T17:34:53.534Z,978.03
2022-08-24T17:40:25.431Z,978.09
2022-08-24T17:45:57.364Z,978.28
2022-08-24T17:51:28.781Z,978.32
2022-08-24T17:57:00.446Z,978.15
2022-08-24T18:02:32.169Z,978.46
2022-08-24T18:08:03.804Z,978.77
2022-08-24T18:13:35.609Z,977.94
2022-08-24T18:19:11.797Z,978.23
2022-08-24T18:24:43.505Z,978.37
2022-08-24T18:30:15.825Z,978.56
2022-08-24T18:35:47.148Z,978.42
2022-08-24T18:41:18.781Z,978.59
2022-08-24T18:46:50.337Z,978.64
2022-08-24T18:52:22.161Z,979.0
2022-08-24T18:57:53.877Z,979.1
2022-08-24T19:03:25.562Z,978.9
2022-08-24T19:08:57.281Z,978.79
2022-08-24T19:14:29.069Z,979.04
2022-08-24T19:20:05.255Z,979.07
2022-08-24T19:25:36.838Z,978.98
2022-08-24T19:31:08.703Z,978.79
2022-08-24T19:36:40.406Z,978.88
2022-08-24T19:42:13.529Z,978.99
2022-08-24T19:47:43.744Z,978.89
2022-08-24T19:53:15.398Z,979.09
2022-08-24T19:58:47.174Z,979.06
2022-08-24T20:04:19.628Z,979.13
2022-08-24T20:09:50.555Z,979.15
2022-08-24T20:15:22.470Z,979.46
2022-08-24T20:20:58.486Z,979.38
2022-08-24T20:26:30.137Z,979.38
2022-08-24T20:32:02.003Z,979.5
2022-08-24T20:37:33.593Z,979.42
2022-08-24T20:43:05.775Z,979.24
2022-08-24T20:48:43.689Z,979.7
2022-08-24T20:54:08.885Z,979.32
2022-08-24T20:59:40.662Z,979.65
2022-08-24T21:05:12.193Z,979.52
2022-08-24T21:10:44.119Z,980.12
2022-08-24T21:16:15.838Z,979.67
2022-08-24T21:21:51.750Z,979.82
2022-08-24T21:27:23.486Z,979.9
2022-08-24T21:32:55.346Z,979.74
2022-08-24T21:38:28.145Z,979.8
2022-08-24T21:43:58.771Z,979.72
2022-08-24T21:49:30.490Z,979.54
2022-08-24T21:55:02.117Z,979.55
2022-08-24T22:00:33.918Z,979.45
2022-08-24T22:06:08.693Z,979.43
2022-08-24T22:11:37.386Z,979.25
2022-08-24T22:17:09.082Z,979.36
2022-08-24T22:22:47.259Z,979.06
2022-08-24T22:28:19.255Z,979.48
2022-08-24T22:33:50.626Z,979.34
2022-08-24T22:39:22.354Z,979.36
2022-08-24T22:44:57.945Z,979.03
2022-08-24T22:50:25.859Z,979.47
2022-08-24T22:55:57.465Z,979.15
2022-08-24T23:01:29.357Z,979.27
2022-08-24T23:07:00.868Z,979.57
2022-08-24T23:12:32.686Z,979.68
2022-08-24T23:18:04.405Z,979.51
2022-08-24T23:23:41.289Z,979.47
2022-08-24T23:29:12.262Z,979.55
2022-08-24T23:34:43.973Z,979.48
2022-08-24T23:40:15.881Z,979.31
2022-08-24T23:45:47.482Z,979.17
2022-08-24T23:51:19.107Z,979.17
2022-08-24T23:56:50.849Z,979.39
